createdAt,value
2017-09-10T00:00:24.943Z,12.40
2017-09-10T00:02:52.452Z,12.40
2017-09-10T00:05:20.719Z,12.30
2017-09-10T00:07:49.010Z,12.30
2017-09-10T00:10:17.304Z,12.20
2017-09-10T00:12:44.782Z,12.20
2017-09-10T00:15:12.286Z,12.20
2017-09-10T00:17:40.575Z,12.20
2017-09-10T00:20:08.052Z,12.20
2017-09-10T00:22:35.535Z,12.20
2017-09-10T00:25:03.013Z,12.10
2017-09-10T00:27:30.514Z,12.10
2017-09-10T00:29:57.990Z,12.10
2017-09-10T00:32:25.490Z,12.10
2017-09-10T00:34:52.975Z,12.00
2017-09-10T00:37:20.467Z,12.00
2017-09-10T00:39:47.977Z,12.00
2017-09-10T00:42:15.476Z,12.00
2017-09-10T00:44:42.964Z,12.00
2017-09-10T00:47:10.483Z,12.00
2017-09-10T00:49:37.984Z,11.90
2017-09-10T00:52:05.477Z,11.90
2017-09-10T00:54:32.979Z,11.90
2017-09-10T00:57:00.542Z,11.90
2017-09-10T00:59:28.028Z,11.90
2017-09-10T01:01:55.542Z,11.80
2017-09-10T01:04:23.034Z,11.80
2017-09-10T01:06:50.535Z,11.80
2017-09-10T01:09:18.048Z,11.70
2017-09-10T01:11:45.533Z,11.70
2017-09-10T01:14:13.815Z,11.70
2017-09-10T01:16:42.059Z,11.70
2017-09-10T01:19:09.556Z,11.70
2017-09-10T01:21:37.033Z,11.70
2017-09-10T01:24:04.537Z,11.60
2017-09-10T01:26:32.014Z,11.60
2017-09-10T01:29:00.273Z,11.60
2017-09-10T01:31:27.771Z,11.60
2017-09-10T01:33:55.281Z,11.60
2017-09-10T01:36:22.772Z,11.60
2017-09-10T01:38:51.023Z,11.50
2017-09-10T01:41:18.496Z,11.50
2017-09-10T01:43:46.767Z,11.50
2017-09-10T01:46:14.256Z,11.50
2017-09-10T01:48:41.752Z,11.50
2017-09-10T01:51:09.232Z,11.50
2017-09-10T01:53:36.723Z,11.50
2017-09-10T01:56:04.228Z,11.40
2017-09-10T01:58:31.725Z,11.40
2017-09-10T02:00:59.962Z,11.40
2017-09-10T02:03:27.464Z,11.40
2017-09-10T02:05:55.708Z,11.40
2017-09-10T02:08:23.191Z,11.40
2017-09-10T02:10:50.687Z,11.40
2017-09-10T02:13:18.193Z,11.40
2017-09-10T02:15:45.700Z,11.40
2017-09-10T02:18:13.184Z,11.40
2017-09-10T02:20:40.708Z,11.40
2017-09-10T02:23:08.192Z,11.40
2017-09-10T02:25:35.692Z,11.40
2017-09-10T02:28:03.936Z,11.40
2017-09-10T02:30:31.470Z,11.40
2017-09-10T02:32:58.976Z,11.40
2017-09-10T02:35:27.237Z,11.30
2017-09-10T02:37:54.745Z,11.30
2017-09-10T02:40:22.240Z,11.30
2017-09-10T02:42:49.733Z,11.30
2017-09-10T02:45:17.998Z,11.30
2017-09-10T02:47:45.504Z,11.30
2017-09-10T02:50:12.999Z,11.30
2017-09-10T02:52:40.471Z,11.30
2017-09-10T02:55:08.747Z,11.30
2017-09-10T02:57:36.250Z,11.30
2017-09-10T03:00:03.751Z,11.30
2017-09-10T03:02:31.246Z,11.20
2017-09-10T03:04:58.726Z,11.20
2017-09-10T03:07:26.220Z,11.20
2017-09-10T03:09:53.704Z,11.20
2017-09-10T03:12:21.976Z,11.10
2017-09-10T03:14:50.229Z,11.10
2017-09-10T03:17:17.791Z,11.10
2017-09-10T03:19:45.364Z,11.10
2017-09-10T03:22:12.995Z,11.10
2017-09-10T03:24:40.572Z,11.10
2017-09-10T03:27:08.138Z,11.10
2017-09-10T03:29:35.807Z,11.20
2017-09-10T03:32:03.447Z,11.10
2017-09-10T03:34:31.137Z,11.10
2017-09-10T03:36:59.016Z,11.10
2017-09-10T03:39:26.751Z,11.10
2017-09-10T03:41:54.523Z,11.10
2017-09-10T03:44:22.170Z,11.10
2017-09-10T03:46:49.777Z,11.10
2017-09-10T03:49:17.379Z,11.10
2017-09-10T03:51:44.947Z,11.10
2017-09-10T03:54:12.557Z,11.10
2017-09-10T03:56:40.109Z,11.00
2017-09-10T03:59:07.729Z,11.00
2017-09-10T04:01:35.391Z,11.00
2017-09-10T04:04:03.045Z,11.00
2017-09-10T04:06:30.795Z,11.00
2017-09-10T04:08:58.475Z,11.00
2017-09-10T04:11:26.135Z,11.00
2017-09-10T04:13:53.704Z,11.00
2017-09-10T04:16:21.262Z,11.00
2017-09-10T04:18:48.809Z,10.90
2017-09-10T04:21:16.383Z,10.90
2017-09-10T04:23:44.028Z,10.80
2017-09-10T04:26:11.688Z,10.80
2017-09-10T04:28:39.259Z,10.80
2017-09-10T04:31:06.795Z,10.80
2017-09-10T04:33:34.396Z,10.80
2017-09-10T04:36:02.072Z,10.90
2017-09-10T04:38:29.702Z,10.90
2017-09-10T04:40:57.352Z,11.00
2017-09-10T04:43:24.929Z,11.00
2017-09-10T04:45:52.938Z,11.00
2017-09-10T04:48:20.459Z,10.90
2017-09-10T04:50:48.136Z,10.80
2017-09-10T04:53:15.781Z,10.80
2017-09-10T04:55:43.429Z,10.80
2017-09-10T04:58:11.612Z,10.80
2017-09-10T05:00:39.161Z,10.80
2017-09-10T05:03:06.731Z,10.70
2017-09-10T05:05:34.378Z,10.70
2017-09-10T05:08:02.030Z,10.70
2017-09-10T05:10:29.717Z,10.80
2017-09-10T05:12:57.249Z,10.90
2017-09-10T05:15:24.772Z,11.00
2017-09-10T05:17:52.498Z,10.80
2017-09-10T05:20:20.151Z,10.80
2017-09-10T05:22:47.708Z,10.60
2017-09-10T05:25:15.369Z,10.60
2017-09-10T05:27:43.034Z,10.60
2017-09-10T05:30:10.607Z,10.70
2017-09-10T05:32:38.259Z,10.80
2017-09-10T05:35:05.899Z,10.90
2017-09-10T05:40:07.389Z,10.80
2017-09-10T05:42:35.075Z,10.80
2017-09-10T05:45:02.700Z,10.80
2017-09-10T05:47:30.318Z,10.70
2017-09-10T05:49:57.925Z,10.60
2017-09-10T05:52:25.528Z,10.50
2017-09-10T05:54:53.089Z,10.50
2017-09-10T05:57:20.718Z,10.70
2017-09-10T05:59:48.278Z,10.90
2017-09-10T06:02:15.864Z,11.10
2017-09-10T06:04:43.485Z,11.20
2017-09-10T06:07:11.053Z,11.20
2017-09-10T06:09:38.643Z,11.30
2017-09-10T06:12:06.173Z,11.30
2017-09-10T06:14:33.712Z,11.30
2017-09-10T06:17:01.320Z,11.40
2017-09-10T06:19:28.864Z,11.40
2017-09-10T06:21:56.369Z,11.40
2017-09-10T06:24:23.895Z,11.50
2017-09-10T06:26:51.402Z,11.60
2017-09-10T06:29:18.920Z,11.60
2017-09-10T06:31:46.450Z,11.60
2017-09-10T06:34:14.784Z,11.60
2017-09-10T06:36:42.296Z,11.60
2017-09-10T06:39:10.568Z,11.60
2017-09-10T06:41:38.076Z,11.60
2017-09-10T06:44:05.623Z,11.70
2017-09-10T06:46:33.125Z,11.70
2017-09-10T06:49:00.650Z,11.80
2017-09-10T06:51:28.179Z,11.80
2017-09-10T06:53:55.679Z,11.90
2017-09-10T06:56:23.192Z,12.00
2017-09-10T06:58:50.704Z,12.00
2017-09-10T07:01:18.229Z,12.10
2017-09-10T07:03:45.728Z,12.10
2017-09-10T07:06:13.245Z,12.20
2017-09-10T07:08:40.752Z,12.20
2017-09-10T07:11:09.035Z,12.40
2017-09-10T07:13:36.824Z,12.40
2017-09-10T07:16:04.368Z,12.40
2017-09-10T07:18:31.883Z,12.50
2017-09-10T07:20:59.392Z,12.50
2017-09-10T07:23:26.882Z,12.60
2017-09-10T07:25:54.393Z,12.60
2017-09-10T07:28:21.945Z,12.70
2017-09-10T07:30:50.236Z,12.90
2017-09-10T07:33:17.756Z,12.90
2017-09-10T07:35:45.264Z,13.10
2017-09-10T07:38:12.750Z,13.20
2017-09-10T07:40:40.543Z,13.40
2017-09-10T07:43:08.120Z,13.50
2017-09-10T07:45:35.647Z,13.60
2017-09-10T07:48:03.165Z,13.70
2017-09-10T07:50:30.708Z,13.90
2017-09-10T07:52:58.999Z,14.00
2017-09-10T07:55:26.520Z,14.00
2017-09-10T07:57:54.019Z,14.20
2017-09-10T08:00:21.507Z,14.20
2017-09-10T08:02:49.040Z,14.30
2017-09-10T08:05:16.592Z,14.40
2017-09-10T08:07:44.121Z,14.50
2017-09-10T08:10:11.655Z,14.70
2017-09-10T08:15:30.555Z,14.70
2017-09-10T08:17:58.472Z,14.60
2017-09-10T08:20:25.959Z,14.60
2017-09-10T08:22:53.452Z,14.70
2017-09-10T08:25:20.950Z,14.80
2017-09-10T08:27:48.476Z,14.80
2017-09-10T08:30:16.726Z,14.90
2017-09-10T08:32:45.007Z,15.00
2017-09-10T08:35:13.318Z,15.00
2017-09-10T08:37:40.835Z,15.00
2017-09-10T08:40:08.320Z,15.10
2017-09-10T08:42:35.887Z,15.10
2017-09-10T08:45:03.388Z,15.20
2017-09-10T08:47:30.906Z,15.30
2017-09-10T08:49:58.402Z,15.40
2017-09-10T08:52:25.894Z,15.40
2017-09-10T08:54:53.384Z,15.40
2017-09-10T08:57:21.439Z,15.40
2017-09-10T08:59:48.982Z,15.40
2017-09-10T09:02:16.532Z,15.40
2017-09-10T09:04:44.026Z,15.50
2017-09-10T09:07:11.539Z,15.50
2017-09-10T09:09:39.748Z,15.40
2017-09-10T09:12:07.464Z,15.50
2017-09-10T09:14:35.015Z,15.50
2017-09-10T09:17:02.498Z,15.50
2017-09-10T09:19:30.784Z,15.70
2017-09-10T09:21:58.295Z,15.70
2017-09-10T09:24:25.810Z,15.90
2017-09-10T09:26:53.324Z,16.00
2017-09-10T09:29:20.834Z,16.00
2017-09-10T09:31:48.339Z,16.10
2017-09-10T09:34:15.851Z,16.10
2017-09-10T09:36:43.340Z,16.30
2017-09-10T09:39:10.873Z,16.40
2017-09-10T09:41:38.427Z,16.50
2017-09-10T09:44:06.048Z,16.50
2017-09-10T09:46:33.591Z,16.50
2017-09-10T09:49:01.128Z,16.50
2017-09-10T09:51:28.648Z,16.60
2017-09-10T09:53:56.261Z,16.60
2017-09-10T09:56:23.831Z,16.60
2017-09-10T09:58:51.335Z,16.50
2017-09-10T10:01:18.880Z,16.50
2017-09-10T10:03:46.401Z,16.60
2017-09-10T10:06:14.020Z,16.70
2017-09-10T10:08:41.567Z,16.70
2017-09-10T10:11:09.183Z,16.80
2017-09-10T10:13:36.738Z,16.80
2017-09-10T10:16:04.291Z,16.80
2017-09-10T10:18:31.812Z,16.80
2017-09-10T10:20:59.371Z,16.90
2017-09-10T10:23:26.898Z,16.90
2017-09-10T10:25:54.428Z,16.90
2017-09-10T10:28:21.919Z,16.80
2017-09-10T10:30:49.408Z,17.00
2017-09-10T10:33:16.962Z,17.10
2017-09-10T10:35:44.569Z,17.20
2017-09-10T10:38:12.079Z,17.30
2017-09-10T10:40:39.607Z,17.30
2017-09-10T10:43:07.131Z,17.30
2017-09-10T10:45:34.631Z,17.40
2017-09-10T10:48:02.968Z,17.50
2017-09-10T10:50:30.550Z,17.40
2017-09-10T10:52:58.084Z,17.40
2017-09-10T10:55:25.695Z,17.30
2017-09-10T10:57:53.259Z,17.30
2017-09-10T11:00:20.820Z,17.30
2017-09-10T11:02:48.359Z,17.30
2017-09-10T11:05:15.851Z,17.20
2017-09-10T11:07:43.375Z,17.20
2017-09-10T11:10:10.860Z,17.20
2017-09-10T11:12:38.383Z,17.20
2017-09-10T11:15:06.804Z,17.30
2017-09-10T11:17:35.280Z,17.30
2017-09-10T11:20:03.218Z,17.40
2017-09-10T11:22:31.528Z,17.50
2017-09-10T11:24:59.062Z,17.50
2017-09-10T11:27:26.708Z,17.50
2017-09-10T11:29:54.202Z,17.60
2017-09-10T11:32:21.703Z,17.60
2017-09-10T11:34:49.316Z,17.70
2017-09-10T11:37:16.850Z,17.80
2017-09-10T11:39:45.152Z,18.10
2017-09-10T11:42:12.938Z,18.10
2017-09-10T11:44:40.476Z,18.30
2017-09-10T11:47:08.123Z,18.50
2017-09-10T11:49:37.166Z,18.60
2017-09-10T11:52:04.762Z,18.70
2017-09-10T11:54:32.305Z,18.70
2017-09-10T11:56:59.807Z,18.70
2017-09-10T11:59:27.403Z,18.70
2017-09-10T12:01:54.927Z,18.70
2017-09-10T12:04:22.529Z,18.70
2017-09-10T12:06:50.032Z,18.70
2017-09-10T12:09:18.518Z,18.80
2017-09-10T12:11:46.042Z,18.80
2017-09-10T12:14:13.675Z,18.80
2017-09-10T12:16:41.661Z,18.80
2017-09-10T12:19:09.159Z,18.90
2017-09-10T12:21:36.711Z,19.00
2017-09-10T12:24:04.248Z,18.90
2017-09-10T12:26:31.835Z,18.90
2017-09-10T12:28:59.795Z,18.90
2017-09-10T12:31:27.439Z,18.90
2017-09-10T12:33:54.974Z,19.10
2017-09-10T12:36:22.587Z,19.10
2017-09-10T12:38:50.128Z,19.10
2017-09-10T12:41:17.696Z,19.20
2017-09-10T12:43:45.979Z,19.30
2017-09-10T12:46:13.539Z,19.20
2017-09-10T12:48:41.102Z,19.20
2017-09-10T12:51:08.630Z,19.20
2017-09-10T12:53:36.166Z,19.10
2017-09-10T12:56:03.679Z,19.20
2017-09-10T12:58:31.252Z,19.20
2017-09-10T13:00:58.750Z,19.30
2017-09-10T13:03:26.317Z,19.20
2017-09-10T13:05:53.866Z,19.10
2017-09-10T13:21:34.767Z,19.50
2017-09-10T13:24:02.944Z,19.40
2017-09-10T13:26:30.487Z,19.30
2017-09-10T13:28:57.992Z,19.20
2017-09-10T13:31:25.476Z,19.20
2017-09-10T13:33:53.245Z,19.10
2017-09-10T13:38:54.600Z,19.10
2017-09-10T13:41:22.149Z,19.20
2017-09-10T13:43:49.679Z,19.20
2017-09-10T13:46:17.157Z,19.30
2017-09-10T13:48:44.666Z,19.30
2017-09-10T13:51:12.952Z,19.30
2017-09-10T13:53:40.575Z,19.30
2017-09-10T13:56:09.038Z,19.30
2017-09-10T13:58:36.538Z,19.30
2017-09-10T14:01:04.100Z,19.20
2017-09-10T14:03:31.590Z,19.20
2017-09-10T14:05:59.105Z,19.20
2017-09-10T14:08:26.605Z,19.20
2017-09-10T14:10:54.147Z,19.10
2017-09-10T14:13:22.423Z,19.10
2017-09-10T14:15:49.934Z,19.10
2017-09-10T14:18:17.488Z,19.10
2017-09-10T14:20:45.098Z,19.00
2017-09-10T14:23:12.602Z,19.00
2017-09-10T14:25:40.103Z,19.10
2017-09-10T14:28:07.651Z,19.10
2017-09-10T14:30:35.155Z,19.10
2017-09-10T14:33:02.669Z,19.20
2017-09-10T14:35:30.205Z,19.20
2017-09-10T14:37:57.761Z,19.30
2017-09-10T14:40:25.275Z,19.20
2017-09-10T14:42:52.880Z,19.20
2017-09-10T14:45:20.383Z,19.30
2017-09-10T14:47:47.945Z,19.20
2017-09-10T14:50:16.207Z,19.00
2017-09-10T14:52:43.772Z,19.00
2017-09-10T14:55:11.291Z,18.90
2017-09-10T14:57:38.791Z,18.90
2017-09-10T15:00:06.324Z,18.80
2017-09-10T15:02:33.822Z,18.80
2017-09-10T15:05:01.340Z,18.70
2017-09-10T15:07:28.899Z,18.80
2017-09-10T15:09:56.400Z,18.90
2017-09-10T15:12:23.931Z,19.00
2017-09-10T15:14:51.578Z,19.10
2017-09-10T15:17:19.095Z,19.10
2017-09-10T15:19:46.633Z,19.20
2017-09-10T15:22:14.137Z,19.20
2017-09-10T15:24:41.657Z,19.20
2017-09-10T15:27:09.161Z,19.10
2017-09-10T15:29:36.696Z,19.10
2017-09-10T15:32:04.198Z,18.90
2017-09-10T15:34:32.535Z,18.80
2017-09-10T15:37:00.059Z,18.60
2017-09-10T15:39:27.585Z,18.60
2017-09-10T15:41:55.229Z,18.50
2017-09-10T15:44:22.867Z,18.50
2017-09-10T15:46:50.392Z,18.50
2017-09-10T15:49:17.927Z,18.50
2017-09-10T15:51:46.209Z,18.70
2017-09-10T15:54:13.730Z,18.70
2017-09-10T15:56:41.252Z,18.80
2017-09-10T15:59:11.485Z,18.70
2017-09-10T16:01:39.051Z,18.70
2017-09-10T16:04:06.889Z,18.60
2017-09-10T16:06:35.005Z,18.60
2017-09-10T16:09:02.531Z,18.50
2017-09-10T16:11:30.043Z,18.50
2017-09-10T16:13:57.586Z,18.50
2017-09-10T16:16:26.177Z,18.50
2017-09-10T16:18:53.747Z,18.50
2017-09-10T16:21:21.320Z,18.30
2017-09-10T16:23:48.904Z,18.20
2017-09-10T16:26:16.440Z,18.20
2017-09-10T16:28:44.055Z,18.10
2017-09-10T16:31:11.579Z,18.10
2017-09-10T16:33:39.104Z,18.00
2017-09-10T16:36:06.647Z,18.00
2017-09-10T16:38:34.188Z,17.90
2017-09-10T16:41:01.774Z,17.90
2017-09-10T16:43:29.381Z,17.80
2017-09-10T16:45:57.022Z,17.70
2017-09-10T16:48:25.044Z,17.70
2017-09-10T16:50:52.564Z,17.60
2017-09-10T16:53:20.079Z,17.70
2017-09-10T16:55:48.756Z,17.60
2017-09-10T16:58:16.304Z,17.60
2017-09-10T17:00:43.882Z,17.60
2017-09-10T17:03:11.427Z,17.50
2017-09-10T17:05:38.937Z,17.50
2017-09-10T17:08:06.468Z,17.50
2017-09-10T17:10:34.043Z,17.40
2017-09-10T17:13:01.571Z,17.40
2017-09-10T17:15:29.087Z,17.50
2017-09-10T17:17:56.669Z,17.50
2017-09-10T17:20:24.185Z,17.50
2017-09-10T17:22:51.708Z,17.50
2017-09-10T17:25:19.212Z,17.50
2017-09-10T17:27:46.759Z,17.50
2017-09-10T17:30:14.328Z,17.50
2017-09-10T17:32:41.892Z,17.40
2017-09-10T17:35:09.388Z,17.40
2017-09-10T17:37:36.951Z,17.50
2017-09-10T17:40:04.562Z,17.50
2017-09-10T17:42:32.113Z,17.50
2017-09-10T17:44:59.839Z,17.50
2017-09-10T17:47:27.471Z,17.50
2017-09-10T17:49:55.007Z,17.40
2017-09-10T17:52:22.581Z,17.40
2017-09-10T17:54:50.087Z,17.40
2017-09-10T17:57:17.669Z,17.30
2017-09-10T17:59:45.292Z,17.30
2017-09-10T18:02:12.894Z,17.30
2017-09-10T18:04:40.510Z,17.40
2017-09-10T18:07:08.007Z,17.30
2017-09-10T18:09:35.586Z,17.40
2017-09-10T18:12:03.152Z,17.40
2017-09-10T18:14:30.817Z,17.40
2017-09-10T18:16:58.320Z,17.40
2017-09-10T18:19:25.834Z,17.40
2017-09-10T18:21:53.356Z,17.40
2017-09-10T18:24:23.600Z,17.40
2017-09-10T18:26:51.221Z,17.40
2017-09-10T18:29:18.795Z,17.40
2017-09-10T18:31:47.232Z,17.40
2017-09-10T18:34:14.761Z,17.30
2017-09-10T18:36:42.415Z,17.20
2017-09-10T18:39:09.930Z,17.20
2017-09-10T18:41:37.440Z,17.10
2017-09-10T18:44:04.974Z,17.10
2017-09-10T18:46:33.280Z,17.10
2017-09-10T18:49:00.884Z,17.10
2017-09-10T18:51:28.464Z,17.10
2017-09-10T18:53:56.771Z,17.10
2017-09-10T18:56:24.312Z,17.10
2017-09-10T18:58:51.839Z,17.00
2017-09-10T19:01:19.384Z,17.10
2017-09-10T19:03:46.900Z,17.10
2017-09-10T19:06:14.436Z,17.00
2017-09-10T19:08:42.019Z,17.00
2017-09-10T19:11:09.552Z,17.00
2017-09-10T19:13:37.248Z,17.00
2017-09-10T19:16:05.556Z,16.90
2017-09-10T19:18:34.117Z,16.80
2017-09-10T19:21:01.672Z,16.70
2017-09-10T19:23:30.427Z,16.70
2017-09-10T19:25:58.006Z,16.60
2017-09-10T19:28:25.545Z,16.60
2017-09-10T19:30:53.069Z,16.50
2017-09-10T19:33:20.635Z,16.50
2017-09-10T19:35:48.132Z,16.40
2017-09-10T19:38:15.902Z,16.30
2017-09-10T19:40:43.480Z,16.30
2017-09-10T19:43:11.051Z,16.30
2017-09-10T19:45:38.556Z,16.30
2017-09-10T19:48:06.106Z,16.30
2017-09-10T19:50:33.672Z,16.30
2017-09-10T19:53:01.216Z,16.30
2017-09-10T19:55:28.870Z,16.30
2017-09-10T19:57:56.444Z,16.40
2017-09-10T20:00:23.953Z,16.30
2017-09-10T20:02:51.442Z,16.30
2017-09-10T20:05:19.025Z,16.30
2017-09-10T20:07:46.592Z,16.30
2017-09-10T20:10:14.123Z,16.20
2017-09-10T20:12:41.635Z,16.10
2017-09-10T20:15:09.158Z,16.10
2017-09-10T20:17:36.709Z,16.10
2017-09-10T20:20:04.205Z,16.10
2017-09-10T20:22:31.716Z,16.00
2017-09-10T20:24:59.267Z,15.90
2017-09-10T20:27:26.793Z,15.90
2017-09-10T20:29:54.350Z,15.80
2017-09-10T20:32:21.880Z,15.70
2017-09-10T20:34:50.221Z,15.60
2017-09-10T20:37:17.724Z,15.60
2017-09-10T20:39:46.076Z,15.50
2017-09-10T20:42:13.615Z,15.40
2017-09-10T20:44:41.137Z,15.40
2017-09-10T20:47:08.699Z,15.30
2017-09-10T20:49:36.311Z,15.30
2017-09-10T20:52:04.041Z,15.30
2017-09-10T20:54:31.542Z,15.20
2017-09-10T20:56:59.109Z,15.20
2017-09-10T20:59:26.673Z,15.20
2017-09-10T21:01:54.219Z,15.20
2017-09-10T21:04:21.737Z,15.20
2017-09-10T21:06:49.233Z,15.10
2017-09-10T21:09:16.802Z,15.10
2017-09-10T21:11:44.388Z,15.10
2017-09-10T21:14:11.913Z,15.00
2017-09-10T21:16:39.483Z,15.00
2017-09-10T21:19:06.991Z,15.00
2017-09-10T21:21:34.497Z,14.90
2017-09-10T21:24:02.002Z,15.00
2017-09-10T21:26:29.565Z,15.00
2017-09-10T21:28:57.092Z,14.90
2017-09-10T21:31:25.076Z,15.00
2017-09-10T21:33:52.616Z,14.90
2017-09-10T21:36:20.160Z,15.00
2017-09-10T21:38:47.667Z,15.00
2017-09-10T21:41:15.173Z,15.00
2017-09-10T21:43:42.947Z,14.90
2017-09-10T21:46:10.523Z,14.90
2017-09-10T21:48:38.073Z,14.90
2017-09-10T21:51:05.611Z,15.00
2017-09-10T21:53:33.108Z,15.00
2017-09-10T21:56:00.640Z,15.00
2017-09-10T21:58:28.172Z,15.00
2017-09-10T22:00:55.655Z,15.00
2017-09-10T22:03:23.949Z,15.10
2017-09-10T22:05:51.466Z,15.10
2017-09-10T22:08:18.991Z,15.00
2017-09-10T22:10:46.514Z,15.10
2017-09-10T22:13:14.039Z,15.00
2017-09-10T22:15:41.531Z,15.10
2017-09-10T22:18:09.053Z,15.20
2017-09-10T22:20:36.548Z,15.20
2017-09-10T22:23:04.156Z,15.10
2017-09-10T22:25:31.750Z,15.10
2017-09-10T22:27:59.292Z,15.10
2017-09-10T22:30:26.866Z,15.10
2017-09-10T22:32:55.224Z,15.10
2017-09-10T22:35:22.712Z,15.10
2017-09-10T22:37:50.197Z,15.10
2017-09-10T22:40:17.731Z,15.10
2017-09-10T22:42:45.231Z,15.10
2017-09-10T22:45:12.792Z,15.10
2017-09-10T22:47:40.299Z,15.10
2017-09-10T22:50:07.822Z,15.00
2017-09-10T22:52:35.325Z,15.00
2017-09-10T22:55:03.333Z,15.00
2017-09-10T22:57:30.831Z,15.10
2017-09-10T22:59:58.329Z,15.00
2017-09-10T23:02:25.816Z,15.00
2017-09-10T23:04:53.315Z,15.00
2017-09-10T23:07:21.235Z,15.00
2017-09-10T23:09:48.740Z,15.00
2017-09-10T23:12:16.259Z,14.90
2017-09-10T23:14:43.752Z,15.00
2017-09-10T23:17:11.256Z,14.90
2017-09-10T23:19:38.793Z,14.90
2017-09-10T23:22:06.313Z,14.90
2017-09-10T23:24:33.809Z,14.90
2017-09-10T23:27:01.357Z,14.90
2017-09-10T23:29:28.869Z,14.90
2017-09-10T23:31:56.455Z,14.80
2017-09-10T23:34:24.015Z,14.80
2017-09-10T23:36:51.530Z,14.80
2017-09-10T23:39:19.003Z,14.80
2017-09-10T23:41:46.491Z,14.80
2017-09-10T23:44:13.971Z,14.80
2017-09-10T23:46:41.460Z,14.80
2017-09-10T23:49:08.943Z,14.80
2017-09-10T23:51:36.434Z,14.70
2017-09-10T23:54:04.683Z,14.70
2017-09-10T23:56:32.175Z,14.60
2017-09-10T23:58:59.653Z,14.60
